Time;durP1;ratioP1;P1;durP2;ratioP2;P2;SDS_P1;SDS_P2;PMS_P1;PMS_P2;Temp;Humidity;BMP_temperature;BMP_pressure;BME280_temperature;BME280_humidity;BME280_pressure;Samples;Min_cycle;Max_cycle;Signal;HPM_P1;HPM_P2
2022/06/06 00:01:19;;;;;;;3.20;2.90;;;17.00;99.90;;;;;;5013045;28;20447;-56
2022/06/06 00:03:47;;;;;;;4.03;3.33;;;17.00;99.90;;;;;;5013427;28;20451;-56
2022/06/06 00:06:18;;;;;;;5.63;3.13;;;17.00;99.90;;;;;;5012921;28;20485;-56
2022/06/06 00:08:46;;;;;;;4.23;3.30;;;16.90;99.90;;;;;;5013187;28;20986;-56
2022/06/06 00:11:14;;;;;;;3.60;3.30;;;16.90;99.90;;;;;;5013029;28;20438;-56
2022/06/06 00:13:43;;;;;;;4.00;2.80;;;16.90;99.90;;;;;;5013385;28;20478;-56
2022/06/06 00:16:12;;;;;;;4.20;3.33;;;16.80;99.90;;;;;;5013269;28;20539;-56
2022/06/06 00:18:39;;;;;;;4.23;3.83;;;16.80;99.90;;;;;;5013274;28;20555;-57
2022/06/06 00:21:10;;;;;;;3.30;3.10;;;16.80;99.90;;;;;;5012883;28;20538;-56
2022/06/06 00:23:38;;;;;;;3.97;2.83;;;16.80;99.90;;;;;;5013874;28;20518;-56
2022/06/06 00:26:07;;;;;;;4.93;3.57;;;16.70;99.90;;;;;;5016251;28;20565;-56
2022/06/06 00:28:35;;;;;;;4.50;3.70;;;16.80;99.90;;;;;;5016882;28;20537;-56
2022/06/06 00:34:48;;;;;;;2.90;2.70;;;16.70;99.90;;;;;;5016346;28;20486;-57
2022/06/06 00:36:34;;;;;;;4.53;3.27;;;16.60;99.90;;;;;;4994195;28;20431;-56
2022/06/06 00:39:01;;;;;;;3.93;3.43;;;16.60;99.90;;;;;;5016609;28;20944;-56
2022/06/06 00:41:29;;;;;;;4.20;3.80;;;16.50;99.90;;;;;;5016341;28;20442;-57
2022/06/06 00:44:05;;;;;;;5.03;3.80;;;16.60;99.90;;;;;;5016155;28;20451;-56
2022/06/06 00:46:34;;;;;;;4.73;3.30;;;16.60;99.90;;;;;;5016555;28;20557;-56
2022/06/06 00:49:03;;;;;;;4.50;3.60;;;16.50;99.90;;;;;;5016480;28;20554;-56
2022/06/06 00:51:32;;;;;;;5.83;4.63;;;16.50;99.90;;;;;;5016132;28;20514;-56
2022/06/06 00:54:00;;;;;;;3.80;3.50;;;16.40;99.90;;;;;;5016416;28;20493;-56
2022/06/06 00:56:31;;;;;;;3.80;3.50;;;16.40;99.90;;;;;;5028005;28;20431;-56
2022/06/06 00:59:01;;;;;;;4.47;3.67;;;16.40;99.90;;;;;;5035767;28;20548;-56
2022/06/06 01:01:31;;;;;;;3.70;3.40;;;16.40;99.90;;;;;;5035680;28;20461;-56
2022/06/06 01:04:00;;;;;;;5.50;3.70;;;16.30;99.90;;;;;;5035925;28;20457;-56
2022/06/06 01:06:32;;;;;;;3.93;3.63;;;16.30;99.90;;;;;;5035796;28;20503;-56
2022/06/06 01:09:00;;;;;;;4.63;4.07;;;16.40;99.90;;;;;;5035553;28;20489;-56
2022/06/06 01:11:27;;;;;;;6.93;4.13;;;16.40;99.90;;;;;;5035445;28;20452;-56
2022/06/06 01:13:56;;;;;;;5.50;4.23;;;16.30;99.90;;;;;;5035499;28;20545;-56
2022/06/06 01:16:38;;;;;;;4.07;3.77;;;16.30;99.90;;;;;;5035639;28;20526;-56
2022/06/06 01:19:32;;;;;;;4.30;3.90;;;16.30;99.90;;;;;;5035690;28;20472;-56
2022/06/06 01:22:32;;;;;;;3.90;3.60;;;16.40;99.90;;;;;;5035428;28;20910;-56
2022/06/06 01:25:26;;;;;;;7.80;4.47;;;16.30;99.90;;;;;;5025293;28;20934;-56
2022/06/06 01:27:58;;;;;;;4.40;4.00;;;16.30;99.90;;;;;;5035345;28;20449;-56
2022/06/06 01:30:33;;;;;;;4.30;3.80;;;16.30;99.90;;;;;;5035017;28;20477;-56
2022/06/06 01:33:02;;;;;;;3.60;3.40;;;16.30;99.90;;;;;;5035285;28;20425;-56
2022/06/06 01:35:32;;;;;;;7.87;3.90;;;16.30;99.90;;;;;;5034491;28;21004;-56
2022/06/06 01:37:59;;;;;;;3.80;3.50;;;16.20;99.90;;;;;;5035395;28;20464;-56
2022/06/06 01:40:33;;;;;;;4.30;3.90;;;16.20;99.90;;;;;;5034852;28;20553;-56
2022/06/06 01:43:06;;;;;;;5.53;3.80;;;16.30;99.90;;;;;;5035058;28;20923;-56
2022/06/06 01:45:42;;;;;;;4.20;3.80;;;16.30;99.90;;;;;;5034876;28;20481;-56
2022/06/06 01:48:14;;;;;;;4.40;3.97;;;16.30;99.90;;;;;;5034882;28;20782;-56
2022/06/06 01:50:43;;;;;;;5.27;3.70;;;16.30;99.90;;;;;;5035345;28;20533;-56
2022/06/06 01:53:13;;;;;;;4.67;3.60;;;16.20;99.90;;;;;;5035018;28;20877;-57
2022/06/06 01:55:43;;;;;;;4.37;3.40;;;16.20;99.90;;;;;;5028973;28;20447;-57
2022/06/06 01:58:14;;;;;;;4.23;3.87;;;16.20;99.90;;;;;;5015142;28;20477;-57
2022/06/06 02:00:43;;;;;;;5.73;4.10;;;16.10;99.90;;;;;;5014938;28;20506;-56
2022/06/06 02:03:10;;;;;;;4.30;3.90;;;16.10;99.90;;;;;;5015072;28;20474;-56
2022/06/06 02:05:38;;;;;;;3.90;3.60;;;16.10;99.90;;;;;;5014727;28;21019;-56
2022/06/06 02:08:05;;;;;;;6.00;4.20;;;16.10;99.90;;;;;;5014679;28;20458;-56
2022/06/06 02:10:33;;;;;;;4.43;3.87;;;16.10;99.90;;;;;;5015024;28;20470;-56
2022/06/06 02:13:00;;;;;;;6.40;4.17;;;16.10;99.90;;;;;;5014543;28;20481;-56
2022/06/06 02:15:28;;;;;;;4.67;4.27;;;16.10;99.90;;;;;;5014584;28;20510;-55
2022/06/06 02:17:57;;;;;;;4.50;4.10;;;16.00;99.90;;;;;;5014420;28;20462;-56
2022/06/06 02:20:27;;;;;;;4.93;4.53;;;15.90;99.90;;;;;;5014756;28;20463;-56
2022/06/06 02:22:54;;;;;;;4.93;4.27;;;15.90;99.90;;;;;;5014652;28;20451;-56
2022/06/06 02:25:22;;;;;;;4.73;4.13;;;15.90;99.90;;;;;;5014632;28;20443;-56
2022/06/06 02:27:50;;;;;;;4.87;4.27;;;15.90;99.90;;;;;;5014579;28;20498;-56
2022/06/06 02:30:20;;;;;;;7.40;5.27;;;16.00;99.90;;;;;;5014607;28;20474;-56
2022/06/06 02:32:47;;;;;;;6.17;4.43;;;16.00;99.90;;;;;;5014472;28;20545;-56
2022/06/06 02:35:17;;;;;;;4.90;4.33;;;16.00;99.90;;;;;;5014384;28;20550;-56
2022/06/06 02:37:46;;;;;;;5.60;4.57;;;16.00;99.90;;;;;;5014344;28;20451;-56
2022/06/06 02:40:17;;;;;;;5.00;4.53;;;15.90;99.90;;;;;;5014171;28;21045;-56
2022/06/06 02:42:44;;;;;;;6.10;5.10;;;15.90;99.90;;;;;;5014361;28;20790;-57
2022/06/06 02:45:15;;;;;;;8.80;4.50;;;15.90;99.90;;;;;;5014100;28;20447;-55
2022/06/06 02:47:43;;;;;;;5.20;4.80;;;15.90;99.90;;;;;;5013479;28;20478;-57
2022/06/06 02:50:11;;;;;;;7.27;5.00;;;15.80;99.90;;;;;;5013959;28;21033;-57
2022/06/06 02:52:40;;;;;;;17.47;5.07;;;15.80;99.90;;;;;;5013971;28;20436;-57
2022/06/06 02:55:09;;;;;;;4.63;4.23;;;15.80;99.90;;;;;;5015203;28;20459;-57
2022/06/06 02:57:38;;;;;;;5.40;4.90;;;15.80;99.90;;;;;;5033620;28;20485;-56
2022/06/06 03:00:08;;;;;;;5.07;4.30;;;15.80;99.90;;;;;;5033876;28;20466;-56
2022/06/06 03:02:36;;;;;;;9.60;4.93;;;15.80;99.90;;;;;;5033400;28;20549;-56
2022/06/06 03:05:04;;;;;;;10.40;4.70;;;15.70;99.90;;;;;;5033820;28;20457;-57
2022/06/06 03:07:42;;;;;;;6.20;5.20;;;15.70;99.90;;;;;;5033516;28;20481;-57
2022/06/06 03:10:22;;;;;;;5.10;4.20;;;15.70;99.90;;;;;;5033436;28;20850;-57
2022/06/06 03:13:09;;;;;;;5.37;3.97;;;15.70;99.90;;;;;;5033714;28;20421;-57
2022/06/06 03:21:52;;;;;;;6.97;5.00;;;15.90;99.90;;;;;;5009118;28;20425;-56
2022/06/06 03:24:32;;;;;;;7.20;4.97;;;15.90;99.90;;;;;;5033509;28;20426;-56
2022/06/06 03:27:18;;;;;;;7.00;4.67;;;15.80;99.90;;;;;;5033331;28;20497;-57
2022/06/06 03:29:58;;;;;;;9.50;4.63;;;15.80;99.90;;;;;;5033477;28;20476;-57
2022/06/06 03:32:34;;;;;;;5.60;4.97;;;15.80;99.90;;;;;;5033385;28;20434;-56
2022/06/06 03:35:11;;;;;;;5.10;4.70;;;15.80;99.90;;;;;;5033337;28;20449;-56
2022/06/06 03:37:48;;;;;;;4.90;4.40;;;15.80;99.90;;;;;;5033383;28;20496;-56
2022/06/06 03:40:22;;;;;;;6.27;4.40;;;15.70;99.90;;;;;;5032985;28;20462;-56
2022/06/06 03:43:01;;;;;;;5.50;4.53;;;15.70;99.90;;;;;;5033240;28;20492;-56
2022/06/06 03:45:39;;;;;;;7.27;4.97;;;15.70;99.90;;;;;;5033501;28;20430;-56
2022/06/06 03:48:18;;;;;;;10.60;5.03;;;15.70;99.90;;;;;;5033261;28;20466;-56
2022/06/06 03:50:52;;;;;;;7.73;4.90;;;15.60;99.90;;;;;;5033343;28;20517;-56
2022/06/06 03:53:29;;;;;;;8.47;5.00;;;15.60;99.90;;;;;;5033008;28;20415;-56
2022/06/06 03:56:09;;;;;;;10.33;4.97;;;15.60;99.90;;;;;;5032782;28;20532;-56
2022/06/06 03:58:38;;;;;;;7.20;4.90;;;15.60;99.90;;;;;;5033530;28;20487;-57
2022/06/06 04:01:08;;;;;;;5.27;4.67;;;15.70;99.90;;;;;;5036989;28;20435;-56
2022/06/06 04:03:37;;;;;;;5.23;4.83;;;15.60;99.90;;;;;;5036829;28;20540;-56
2022/06/06 04:06:05;;;;;;;5.27;4.73;;;15.60;99.90;;;;;;5036840;28;20453;-56
2022/06/06 04:08:33;;;;;;;5.30;4.67;;;15.70;99.90;;;;;;5036888;28;20906;-56
2022/06/06 04:11:15;;;;;;;6.87;5.20;;;15.70;99.90;;;;;;5036581;28;20935;-56
2022/06/06 04:13:54;;;;;;;6.40;4.93;;;15.60;99.90;;;;;;5036849;28;20469;-56
2022/06/06 04:16:34;;;;;;;6.00;4.37;;;15.60;99.90;;;;;;5036632;28;20890;-56
2022/06/06 04:19:14;;;;;;;6.50;4.93;;;15.70;99.90;;;;;;5036732;28;20488;-56
2022/06/06 04:21:50;;;;;;;5.27;4.77;;;15.70;99.90;;;;;;5036816;28;20434;-56
2022/06/06 04:24:32;;;;;;;6.30;5.53;;;15.70;99.90;;;;;;5036752;28;20762;-56
2022/06/06 04:27:08;;;;;;;4.83;4.43;;;15.70;99.90;;;;;;5036109;28;20556;-56
2022/06/06 04:29:45;;;;;;;7.90;4.90;;;15.90;99.90;;;;;;5036267;28;20472;-56
2022/06/06 04:32:21;;;;;;;4.80;4.40;;;15.90;99.90;;;;;;5036646;28;20849;-56
2022/06/06 04:34:56;;;;;;;5.27;4.87;;;15.80;99.90;;;;;;5036421;28;20785;-56
2022/06/06 04:37:36;;;;;;;7.83;5.00;;;15.90;99.90;;;;;;5036541;28;20509;-57
2022/06/06 04:40:09;;;;;;;7.40;5.47;;;15.90;99.90;;;;;;5036500;28;20470;-56
2022/06/06 04:42:45;;;;;;;5.93;4.90;;;15.90;99.90;;;;;;5036331;28;20441;-57
2022/06/06 04:45:21;;;;;;;8.70;5.53;;;16.00;99.90;;;;;;5036128;28;20931;-56
2022/06/06 04:47:50;;;;;;;14.23;5.30;;;16.10;99.90;;;;;;5036329;28;20476;-56
2022/06/06 04:50:19;;;;;;;6.00;5.03;;;16.10;99.90;;;;;;5036243;28;20477;-57
2022/06/06 04:52:51;;;;;;;8.77;5.10;;;16.20;99.90;;;;;;5036114;28;20537;-56
2022/06/06 04:55:20;;;;;;;4.80;4.40;;;16.30;99.90;;;;;;5036058;28;20430;-57
2022/06/06 04:57:51;;;;;;;5.33;4.73;;;16.50;99.90;;;;;;5036208;28;20457;-57
2022/06/06 05:00:20;;;;;;;5.13;4.63;;;16.60;99.90;;;;;;5036091;28;20466;-56
2022/06/06 05:02:47;;;;;;;7.00;4.90;;;16.70;99.90;;;;;;5036090;28;20477;-56
2022/06/06 05:05:15;;;;;;;5.40;4.90;;;16.70;99.90;;;;;;5035888;28;20458;-56
2022/06/06 05:08:01;;;;;;;6.17;4.03;;;16.80;99.90;;;;;;5035713;28;20490;-56
2022/06/06 05:10:44;;;;;;;8.57;4.60;;;16.80;99.90;;;;;;5034477;28;20467;-55
2022/06/06 05:13:37;;;;;;;7.50;4.90;;;16.90;99.90;;;;;;5035705;28;20494;-56
2022/06/06 05:16:25;;;;;;;5.07;4.57;;;17.00;99.90;;;;;;5035533;28;20446;-57
2022/06/06 05:19:06;;;;;;;4.83;4.43;;;17.10;99.90;;;;;;5035499;28;20462;-57
2022/06/06 05:21:51;;;;;;;6.00;4.70;;;17.20;99.90;;;;;;5035731;28;20466;-56
2022/06/06 05:24:32;;;;;;;9.47;4.60;;;17.40;99.90;;;;;;5035257;28;20430;-56
2022/06/06 05:27:23;;;;;;;7.20;4.47;;;17.40;99.90;;;;;;5018769;28;20510;-56
2022/06/06 05:30:09;;;;;;;9.60;4.50;;;17.50;99.90;;;;;;5015781;28;20477;-56
2022/06/06 05:33:12;;;;;;;6.30;4.57;;;17.60;99.90;;;;;;5015859;28;20434;-56
2022/06/06 05:36:00;;;;;;;4.83;4.43;;;17.70;99.90;;;;;;4991477;28;20553;-56
2022/06/06 05:38:43;;;;;;;6.20;4.10;;;17.80;99.90;;;;;;5015533;28;20545;-56
2022/06/06 05:41:21;;;;;;;5.03;4.57;;;17.80;99.90;;;;;;5015651;28;20785;-56
2022/06/06 05:43:57;;;;;;;6.43;4.87;;;17.90;99.90;;;;;;5015619;28;20510;-56
2022/06/06 05:46:38;;;;;;;4.40;4.00;;;17.90;99.90;;;;;;5015152;28;20437;-57
2022/06/06 05:49:25;;;;;;;4.90;4.47;;;18.00;99.90;;;;;;5015296;28;20517;-56
2022/06/06 05:52:08;;;;;;;4.80;4.30;;;18.00;99.90;;;;;;5014993;28;20806;-56
2022/06/06 05:54:52;;;;;;;4.83;4.43;;;18.10;99.90;;;;;;5015292;28;20445;-56
2022/06/06 05:57:48;;;;;;;4.73;4.27;;;18.20;99.90;;;;;;5034466;28;20447;-56
2022/06/06 06:00:21;;;;;;;4.93;4.40;;;18.40;99.90;;;;;;5034689;28;20969;-56
2022/06/06 06:03:26;;;;;;;4.80;4.40;;;18.40;99.90;;;;;;5034816;28;20806;-56
2022/06/06 06:06:08;;;;;;;5.77;4.03;;;18.50;99.90;;;;;;5034361;28;20482;-56
2022/06/06 06:08:56;;;;;;;4.20;3.80;;;18.60;99.90;;;;;;5034484;28;20501;-57
2022/06/06 06:11:33;;;;;;;4.93;4.43;;;18.80;99.90;;;;;;5034521;28;20430;-57
2022/06/06 06:14:16;;;;;;;3.87;3.57;;;18.80;99.90;;;;;;5034759;28;20435;-57
2022/06/06 06:16:46;;;;;;;4.10;3.67;;;19.00;99.90;;;;;;5034321;28;20992;-56
2022/06/06 06:19:17;;;;;;;4.50;4.10;;;19.10;99.90;;;;;;5034581;28;20466;-57
2022/06/06 06:21:48;;;;;;;5.70;4.10;;;19.10;99.90;;;;;;5034531;28;20789;-57
2022/06/06 06:24:19;;;;;;;6.70;4.40;;;19.20;99.90;;;;;;5034394;28;20430;-57
2022/06/06 06:26:47;;;;;;;4.63;3.80;;;19.20;99.90;;;;;;5034199;28;20523;-57
2022/06/06 06:29:14;;;;;;;6.07;4.20;;;19.10;99.90;;;;;;5034110;28;20470;-56
2022/06/06 06:32:08;;;;;;;5.40;4.07;;;19.00;99.90;;;;;;5034168;28;20477;-57
2022/06/06 06:34:52;;;;;;;4.27;3.97;;;19.10;99.90;;;;;;5033780;28;20454;-55
2022/06/06 06:37:36;;;;;;;5.20;4.70;;;19.20;99.90;;;;;;5033899;28;20431;-55
2022/06/06 06:40:16;;;;;;;5.50;4.50;;;19.20;99.90;;;;;;5034239;28;20550;-55
2022/06/06 06:42:59;;;;;;;4.77;4.27;;;19.20;99.90;;;;;;5033846;28;20417;-56
2022/06/06 06:45:30;;;;;;;4.40;4.00;;;19.20;99.90;;;;;;5033745;28;20457;-56
2022/06/06 06:48:02;;;;;;;5.00;4.50;;;19.20;99.90;;;;;;5033630;28;20477;-56
2022/06/06 06:50:35;;;;;;;4.83;4.33;;;19.30;99.90;;;;;;5033898;28;20470;-56
2022/06/06 06:53:22;;;;;;;5.10;4.10;;;19.30;99.90;;;;;;5034053;28;20795;-55
2022/06/06 06:56:00;;;;;;;4.53;3.70;;;19.50;99.90;;;;;;5026744;28;20482;-56
2022/06/06 06:58:45;;;;;;;6.13;4.30;;;19.60;99.90;;;;;;5013707;28;20518;-55
2022/06/06 07:01:19;;;;;;;4.90;4.50;;;19.80;99.90;;;;;;5013882;28;20945;-56
2022/06/06 07:10:08;;;;;;;5.10;4.10;;;20.80;99.90;;;;;;5013747;28;20558;-56
2022/06/06 07:13:12;;;;;;;5.00;4.50;;;21.00;99.90;;;;;;5014027;28;20488;-56
2022/06/06 07:15:45;;;;;;;4.30;4.00;;;21.10;99.90;;;;;;4989818;28;20498;-56
2022/06/06 07:18:16;;;;;;;4.43;4.13;;;20.90;99.90;;;;;;5013823;28;20427;-56
2022/06/06 07:20:46;;;;;;;4.00;3.70;;;20.70;99.90;;;;;;5013944;28;20514;-55
2022/06/06 07:23:15;;;;;;;4.27;3.90;;;20.60;99.90;;;;;;5013959;28;20438;-56
2022/06/06 07:25:46;;;;;;;3.90;3.60;;;20.70;99.90;;;;;;5019636;28;20633;-56
2022/06/06 07:28:15;;;;;;;4.50;4.10;;;21.20;99.90;;;;;;5033474;28;20505;-56
2022/06/06 07:30:44;;;;;;;3.33;3.03;;;21.70;99.90;;;;;;5033507;28;20485;-56
2022/06/06 07:33:37;;;;;;;3.87;3.50;;;21.90;99.90;;;;;;5032823;28;20478;-56
2022/06/06 07:36:14;;;;;;;4.20;3.87;;;21.70;99.90;;;;;;5033282;28;20471;-56
2022/06/06 07:38:55;;;;;;;4.30;4.00;;;21.50;99.90;;;;;;5033175;28;20831;-56
2022/06/06 07:41:30;;;;;;;5.10;4.70;;;21.50;99.90;;;;;;5033502;28;20433;-56
2022/06/06 07:44:15;;;;;;;6.43;3.63;;;21.50;99.90;;;;;;5032781;28;20479;-55
2022/06/06 07:46:57;;;;;;;4.20;3.90;;;21.60;99.90;;;;;;5033342;28;20844;-56
2022/06/06 07:49:31;;;;;;;4.50;3.57;;;21.40;99.90;;;;;;5033310;28;20458;-55
2022/06/06 07:52:07;;;;;;;4.23;3.60;;;21.60;99.90;;;;;;5033086;28;20429;-56
2022/06/06 07:54:43;;;;;;;3.53;3.23;;;22.20;99.90;;;;;;5033016;28;20509;-56
2022/06/06 07:57:27;;;;;;;3.30;3.10;;;22.70;99.90;;;;;;5032784;28;20448;-55
2022/06/06 08:00:06;;;;;;;4.30;3.80;;;23.20;99.90;;;;;;5033035;28;20550;-55
2022/06/06 08:02:56;;;;;;;3.30;3.00;;;23.30;99.90;;;;;;5033221;28;20431;-55
2022/06/06 08:05:39;;;;;;;4.60;4.20;;;23.60;99.90;;;;;;5033166;28;20815;-55
2022/06/06 08:08:12;;;;;;;3.57;3.30;;;24.00;99.90;;;;;;5032621;28;20493;-55
2022/06/06 08:10:43;;;;;;;3.20;3.00;;;23.80;99.90;;;;;;5032783;28;20525;-56
2022/06/06 08:13:30;;;;;;;5.70;3.40;;;24.00;99.90;;;;;;5033349;28;20496;-55
2022/06/06 08:16:11;;;;;;;4.30;3.90;;;23.70;99.90;;;;;;5032357;28;20530;-59
2022/06/06 08:19:10;;;;;;;3.30;3.10;;;24.10;99.90;;;;;;5031535;28;20965;-57
2022/06/06 08:21:40;;;;;;;5.80;3.43;;;23.90;99.90;;;;;;5029262;28;20501;-57
2022/06/06 08:24:10;;;;;;;4.17;2.87;;;24.50;99.90;;;;;;5032673;28;20455;-59
2022/06/06 08:26:41;;;;;;;3.23;2.97;;;25.40;99.90;;;;;;5032764;28;20501;-57
2022/06/06 08:29:10;;;;;;;5.43;3.57;;;25.50;99.90;;;;;;5032738;28;20514;-52
2022/06/06 08:31:38;;;;;;;3.87;3.40;;;25.90;99.90;;;;;;5032496;28;20933;-54
2022/06/06 08:34:05;;;;;;;5.43;3.47;;;25.80;99.90;;;;;;5032892;28;20446;-51
2022/06/06 08:37:03;;;;;;;3.83;3.43;;;26.10;99.90;;;;;;5032315;28;20929;-50
2022/06/06 08:39:41;;;;;;;4.67;3.37;;;25.60;99.90;;;;;;5032939;28;20513;-52
2022/06/06 08:42:28;;;;;;;3.10;2.80;;;26.10;99.90;;;;;;5032822;28;20442;-49
2022/06/06 08:45:16;;;;;;;3.63;2.80;;;25.80;99.90;;;;;;5032941;28;20431;-54
2022/06/06 08:47:57;;;;;;;4.80;3.20;;;24.60;99.90;;;;;;5036456;28;20549;-48
2022/06/06 08:50:50;;;;;;;3.17;2.97;;;25.30;99.90;;;;;;5035735;28;20461;-49
2022/06/06 08:53:50;;;;;;;2.97;2.77;;;25.80;99.90;;;;;;5035822;28;20984;-53
2022/06/06 08:56:37;;;;;;;4.93;3.10;;;25.20;99.90;;;;;;5024903;28;21087;-51
2022/06/06 08:59:39;;;;;;;2.83;2.53;;;25.20;99.20;;;;;;5015828;28;20546;-52
2022/06/06 09:02:40;;;;;;;2.97;2.77;;;25.50;99.90;;;;;;5016405;28;20433;-51
2022/06/06 09:05:45;;;;;;;3.20;2.50;;;26.30;99.90;;;;;;5012529;28;20833;-52
2022/06/06 09:08:52;;;;;;;3.43;3.13;;;26.10;98.40;;;;;;5014924;28;20486;-52
2022/06/06 09:11:55;;;;;;;2.97;2.70;;;26.30;99.30;;;;;;5004151;28;20445;-54
2022/06/06 09:15:00;;;;;;;10.87;3.73;;;25.30;96.10;;;;;;5015668;28;20435;-51
2022/06/06 09:18:04;;;;;;;2.37;2.17;;;25.50;97.40;;;;;;5016128;28;20442;-51
2022/06/06 09:20:58;;;;;;;3.00;2.80;;;25.90;98.00;;;;;;5015637;28;20475;-51
2022/06/06 09:23:50;;;;;;;2.53;2.33;;;25.50;98.70;;;;;;5015693;28;20973;-49
2022/06/06 09:26:26;;;;;;;3.60;2.67;;;24.80;97.40;;;;;;5015602;28;20440;-50
2022/06/06 09:29:37;;;;;;;2.90;2.70;;;25.30;99.00;;;;;;5015592;28;20497;-51
2022/06/06 09:32:33;;;;;;;5.10;3.07;;;25.70;98.00;;;;;;5015053;28;20938;-51
2022/06/06 09:35:23;;;;;;;3.73;2.53;;;26.40;97.60;;;;;;5015378;28;20530;-51
2022/06/06 09:38:12;;;;;;;3.60;2.87;;;26.70;94.90;;;;;;5015082;28;20538;-50
2022/06/06 09:41:04;;;;;;;2.93;2.63;;;27.40;99.90;;;;;;5015145;28;20790;-52
2022/06/06 09:43:50;;;;;;;4.70;3.30;;;27.30;94.80;;;;;;5015116;28;20479;-51
2022/06/06 09:46:41;;;;;;;2.47;2.27;;;27.00;95.60;;;;;;5015477;28;20458;-51
2022/06/06 09:49:48;;;;;;;2.90;2.70;;;25.80;96.60;;;;;;5015355;28;20848;-50
2022/06/06 09:52:49;;;;;;;2.80;2.60;;;26.10;96.50;;;;;;5015053;28;20537;-50
2022/06/06 09:59:20;;;;;;;3.00;2.67;;;26.90;93.70;;;;;;5014908;28;20818;-49
2022/06/06 10:02:16;;;;;;;2.43;2.23;;;27.20;94.40;;;;;;5013355;28;20462;-49
2022/06/06 10:05:22;;;;;;;2.57;2.37;;;27.20;94.40;;;;;;5014728;28;20537;-51
2022/06/06 10:08:42;;;;;;;3.93;2.40;;;26.70;93.50;;;;;;5014909;28;20546;-49
2022/06/06 10:11:36;;;;;;;2.30;2.10;;;27.00;91.90;;;;;;5015040;28;20431;-50
2022/06/06 10:14:27;;;;;;;2.70;2.50;;;27.10;91.30;;;;;;5013491;28;20455;-51
2022/06/06 10:17:08;;;;;;;2.50;2.30;;;26.80;90.50;;;;;;5015003;28;20902;-52
2022/06/06 10:19:51;;;;;;;2.50;2.30;;;26.70;90.50;;;;;;5014466;28;20558;-52
2022/06/06 10:22:44;;;;;;;2.57;2.27;;;27.20;89.80;;;;;;5014905;28;20455;-52
2022/06/06 10:25:25;;;;;;;3.93;2.40;;;26.90;92.60;;;;;;5014641;28;20495;-51
2022/06/06 10:28:16;;;;;;;12.23;3.30;;;25.90;91.20;;;;;;5014606;28;20515;-48
2022/06/06 10:30:56;;;;;;;2.83;2.60;;;25.10;93.20;;;;;;5014294;28;20770;-51
2022/06/06 10:33:52;;;;;;;3.30;2.73;;;25.10;94.50;;;;;;5014552;28;20443;-51
2022/06/06 10:36:36;;;;;;;2.83;2.63;;;25.60;92.50;;;;;;5014512;28;20463;-51
2022/06/06 10:39:32;;;;;;;2.80;2.60;;;25.40;92.70;;;;;;5014357;28;20471;-52
2022/06/06 10:42:16;;;;;;;3.10;2.57;;;25.60;92.90;;;;;;5014357;28;20825;-51
2022/06/06 10:45:15;;;;;;;2.50;2.30;;;25.40;92.60;;;;;;5017708;28;20864;-53
2022/06/06 10:48:09;;;;;;;2.73;2.50;;;25.50;93.70;;;;;;5026438;28;20446;-52
2022/06/06 10:53:55;;;;;;;3.43;2.77;;;24.70;93.50;;;;;;5033323;28;20430;-54
2022/06/06 10:56:57;;;;;;;3.73;3.10;;;24.40;94.90;;;;;;5033293;28;20521;-55
2022/06/06 11:00:03;;;;;;;2.70;2.50;;;24.00;95.60;;;;;;5033607;28;20572;-54
2022/06/06 11:03:13;;;;;;;2.53;2.33;;;23.90;94.00;;;;;;5033592;28;20446;-54
2022/06/06 11:06:36;;;;;;;4.70;2.77;;;24.70;92.60;;;;;;5033663;28;20436;-55
2022/06/06 11:09:24;;;;;;;2.40;2.20;;;25.80;92.50;;;;;;5032377;28;20493;-55
2022/06/06 11:12:16;;;;;;;3.10;2.80;;;26.40;90.70;;;;;;5033239;28;21008;-55
2022/06/06 11:14:45;;;;;;;2.53;2.33;;;25.80;92.60;;;;;;5033108;28;20935;-54
2022/06/06 11:17:40;;;;;;;2.67;2.47;;;25.40;93.10;;;;;;5032903;28;20929;-54
2022/06/06 11:20:40;;;;;;;2.60;2.40;;;25.20;91.70;;;;;;5033339;28;20469;-54
2022/06/06 11:23:19;;;;;;;2.73;2.37;;;24.50;93.30;;;;;;5033175;28;20426;-54
2022/06/06 11:25:58;;;;;;;2.40;2.20;;;24.40;93.00;;;;;;5026756;28;20443;-54
2022/06/06 11:28:45;;;;;;;3.03;2.80;;;24.40;93.60;;;;;;5013385;28;20471;-54
2022/06/06 11:31:50;;;;;;;5.13;2.70;;;24.60;93.60;;;;;;5012736;28;20435;-54
2022/06/06 11:34:50;;;;;;;5.40;2.60;;;24.90;92.40;;;;;;5003828;28;20457;-54
2022/06/06 11:38:06;;;;;;;2.40;2.20;;;25.00;92.90;;;;;;5013053;28;20419;-56
2022/06/06 11:41:12;;;;;;;2.80;2.53;;;25.80;91.90;;;;;;5009687;28;20896;-52
2022/06/06 11:44:15;;;;;;;2.73;2.20;;;25.60;91.00;;;;;;4972033;28;20456;-53
2022/06/06 11:47:14;;;;;;;2.73;2.43;;;24.80;91.70;;;;;;5011325;28;20466;-57
2022/06/06 11:50:01;;;;;;;4.00;2.67;;;24.80;93.30;;;;;;5012982;28;20487;-52
2022/06/06 11:52:58;;;;;;;4.00;2.87;;;24.60;92.00;;;;;;5013235;28;20910;-56
2022/06/06 11:55:40;;;;;;;3.10;2.80;;;24.20;92.30;;;;;;5017293;28;20814;-57
2022/06/06 11:58:47;;;;;;;2.40;2.30;;;24.40;93.70;;;;;;5032979;28;20449;-58
2022/06/06 12:01:44;;;;;;;2.73;2.53;;;24.40;93.90;;;;;;4997881;28;20843;-56
2022/06/06 12:04:47;;;;;;;2.93;2.73;;;24.00;92.40;;;;;;5033209;28;20816;-56
2022/06/06 12:08:06;;;;;;;2.53;2.33;;;24.00;93.00;;;;;;5032496;28;21015;-56
2022/06/06 12:10:39;;;;;;;2.50;2.30;;;24.50;92.10;;;;;;5032500;28;20490;-58
2022/06/06 12:13:41;;;;;;;2.80;2.50;;;24.70;92.70;;;;;;5032911;28;20434;-57
2022/06/06 12:16:32;;;;;;;2.70;2.50;;;24.50;93.00;;;;;;5028432;28;20442;-56
2022/06/06 12:19:24;;;;;;;2.70;2.50;;;24.20;91.80;;;;;;5013304;28;20473;-56
2022/06/06 12:22:12;;;;;;;2.93;2.60;;;24.00;92.00;;;;;;5017078;28;20797;-58
2022/06/06 12:25:06;;;;;;;2.97;2.77;;;23.70;93.30;;;;;;5016618;28;20443;-57
2022/06/06 12:27:54;;;;;;;2.60;2.33;;;23.70;94.00;;;;;;5016554;28;20578;-57
2022/06/06 12:30:41;;;;;;;3.10;2.90;;;23.60;91.70;;;;;;5015952;28;20483;-57
2022/06/06 12:33:14;;;;;;;2.50;2.30;;;23.70;91.70;;;;;;5016615;28;20438;-56
2022/06/06 12:35:51;;;;;;;2.83;2.63;;;23.80;91.70;;;;;;5016811;28;20427;-57
2022/06/06 12:38:40;;;;;;;2.50;2.30;;;24.30;93.40;;;;;;5016769;28;20545;-59
2022/06/06 12:41:20;;;;;;;2.80;2.20;;;24.80;91.20;;;;;;5016736;28;20509;-57
2022/06/06 12:43:58;;;;;;;2.90;2.60;;;25.30;91.90;;;;;;5016091;28;20442;-58
2022/06/06 12:46:47;;;;;;;5.30;2.83;;;25.30;90.30;;;;;;5016343;28;20454;-57
2022/06/06 12:49:42;;;;;;;2.93;2.60;;;25.40;89.20;;;;;;5016412;28;20486;-58
2022/06/06 12:52:41;;;;;;;2.67;2.47;;;25.70;91.40;;;;;;5014918;28;20497;-57
2022/06/06 12:55:31;;;;;;;2.90;2.40;;;26.00;90.90;;;;;;5017168;28;20427;-58
2022/06/06 12:58:10;;;;;;;2.10;1.93;;;26.40;90.50;;;;;;5036217;28;20492;-58
2022/06/06 13:03:38;;;;;;;4.20;2.50;;;25.60;90.80;;;;;;5035751;28;20418;-56
2022/06/06 13:06:15;;;;;;;2.73;2.50;;;25.10;90.80;;;;;;5035635;28;20458;-56
2022/06/06 13:09:04;;;;;;;2.50;2.30;;;24.80;90.50;;;;;;5035325;28;20485;-57
2022/06/06 13:11:49;;;;;;;2.87;2.60;;;24.60;90.30;;;;;;5035025;28;20443;-55
2022/06/06 13:14:37;;;;;;;2.60;2.40;;;24.40;91.50;;;;;;5035897;28;20437;-57
2022/06/06 13:17:17;;;;;;;5.93;3.00;;;24.20;91.00;;;;;;5034846;28;20458;-57
2022/06/06 13:20:04;;;;;;;3.40;2.57;;;24.20;91.40;;;;;;5035383;28;20815;-57
2022/06/06 13:22:45;;;;;;;2.80;2.60;;;23.90;91.70;;;;;;5035651;28;20477;-57
2022/06/06 13:25:25;;;;;;;2.80;2.60;;;24.00;92.30;;;;;;5035838;28;20501;-57
2022/06/06 13:28:10;;;;;;;3.10;2.80;;;23.90;92.40;;;;;;5035341;28;20430;-57
2022/06/06 13:30:54;;;;;;;3.07;2.60;;;23.90;92.60;;;;;;5035511;28;20912;-57
2022/06/06 13:33:47;;;;;;;3.30;2.40;;;23.90;92.70;;;;;;5034891;28;20903;-57
2022/06/06 13:36:27;;;;;;;2.40;2.20;;;23.90;92.30;;;;;;5035004;28;20426;-58
2022/06/06 13:39:07;;;;;;;2.50;2.00;;;23.90;92.50;;;;;;5035304;28;20569;-57
2022/06/06 13:41:47;;;;;;;3.00;2.50;;;23.60;92.30;;;;;;5035401;28;20411;-57
2022/06/06 13:44:35;;;;;;;4.13;2.80;;;23.50;93.10;;;;;;5034917;28;20932;-58
2022/06/06 13:47:09;;;;;;;2.60;2.40;;;23.40;92.50;;;;;;5035307;28;20804;-58
2022/06/06 13:49:57;;;;;;;3.53;2.30;;;23.40;93.00;;;;;;5034630;28;20850;-57
2022/06/06 13:52:41;;;;;;;2.73;2.50;;;23.10;93.40;;;;;;5035132;28;20538;-57
2022/06/06 13:55:28;;;;;;;3.53;2.87;;;23.00;92.80;;;;;;5034702;28;20426;-57
2022/06/06 13:58:06;;;;;;;4.73;3.13;;;22.90;93.00;;;;;;5034756;28;20956;-57
2022/06/06 14:00:43;;;;;;;2.57;2.37;;;23.00;93.70;;;;;;5035015;28;20497;-57
2022/06/06 14:03:27;;;;;;;4.17;2.93;;;22.90;93.40;;;;;;5034678;28;20431;-57
2022/06/06 14:06:19;;;;;;;3.40;2.73;;;22.80;93.50;;;;;;5034670;28;20438;-57
2022/06/06 14:08:52;;;;;;;3.40;2.80;;;22.70;93.00;;;;;;5034383;28;20521;-57
2022/06/06 14:11:52;;;;;;;2.10;1.90;;;22.60;93.50;;;;;;5034748;28;20435;-57
2022/06/06 14:14:22;;;;;;;3.13;2.83;;;22.60;94.10;;;;;;5029767;28;20477;-57
2022/06/06 14:16:53;;;;;;;2.87;2.67;;;22.60;94.20;;;;;;5034660;28;20453;-57
2022/06/06 14:19:22;;;;;;;4.83;2.97;;;22.50;94.10;;;;;;5034488;28;20462;-57
2022/06/06 14:21:53;;;;;;;2.80;2.60;;;22.60;94.40;;;;;;5034594;28;20460;-57